Osterdock, Iowa
Current Conditions -  °F | °C
As of 7:15 AM on Sunday 23 Nov 2014 (Local Time) from KPDC Reporting Station
Overcast Overcast  
Wind Chill: 51°   Ceiling: 900
Heat Index: 51°   Visibility: 10mi
Dew Point: 48°   Wind: 8mph
Humidity: 90%   Direction: 150°SSE
Pressure: 29.57"   Gusts: NA
Location:  42.6454°N, 91.192°W
Report Text: KPDC 231315Z AUTO 15007KT 10SM OVC009 11/09 A2957 RMK AO2 T01060091
Loading
Personal Weather Stations






























Interactive Weather Map New forecast layout! Learn more

10-Day Weather Forecast

Advertisements
Track Severe Weather on mobile